createdAt,value
2019-02-18T00:01:27.419Z,18.20
2019-02-18T00:04:12.584Z,18.13
2019-02-18T00:06:57.523Z,13.50
2019-02-18T00:09:42.595Z,16.33
2019-02-18T00:12:27.061Z,20.37
2019-02-18T00:15:11.899Z,20.43
2019-02-18T00:17:56.602Z,18.73
2019-02-18T00:20:41.314Z,16.83
2019-02-18T00:23:26.419Z,21.13
2019-02-18T00:26:11.121Z,21.50
2019-02-18T00:28:56.218Z,19.77
2019-02-18T00:31:41.189Z,17.80
2019-02-18T00:34:25.762Z,17.93
2019-02-18T00:37:10.328Z,19.47
2019-02-18T00:39:54.681Z,16.47
2019-02-18T00:42:39.363Z,19.77
2019-02-18T00:45:23.809Z,16.17
2019-02-18T00:48:08.534Z,16.80
2019-02-18T00:50:53.408Z,18.30
2019-02-18T00:53:38.075Z,18.77
2019-02-18T00:56:23.088Z,18.80
2019-02-18T00:59:07.924Z,17.73
2019-02-18T01:01:52.454Z,16.67
2019-02-18T01:04:37.065Z,15.30
2019-02-18T01:07:21.650Z,18.17
2019-02-18T01:10:09.215Z,15.47
2019-02-18T01:12:53.785Z,15.20
2019-02-18T01:15:38.366Z,14.63
2019-02-18T01:18:22.960Z,14.77
2019-02-18T01:21:07.518Z,15.90
2019-02-18T01:23:52.244Z,17.43
2019-02-18T01:26:36.745Z,14.43
2019-02-18T01:29:21.224Z,14.57
2019-02-18T01:32:05.933Z,16.77
2019-02-18T01:34:50.358Z,13.10
2019-02-18T01:37:44.857Z,15.30
2019-02-18T01:40:21.708Z,14.53
2019-02-18T01:43:06.821Z,12.97
2019-02-18T01:45:55.280Z,12.57
2019-02-18T01:48:39.896Z,14.33
2019-02-18T01:51:24.270Z,12.37
2019-02-18T01:54:09.434Z,14.90
2019-02-18T01:56:53.950Z,16.13
2019-02-18T01:59:38.931Z,15.87
2019-02-18T02:02:25.836Z,13.20
2019-02-18T02:05:12.434Z,13.03
2019-02-18T02:07:57.306Z,16.10
2019-02-18T02:10:42.330Z,13.63
2019-02-18T02:13:28.663Z,11.93
2019-02-18T02:16:13.433Z,14.73
2019-02-18T02:18:58.154Z,14.80
2019-02-18T02:21:42.725Z,17.07
2019-02-18T02:24:27.556Z,16.93
2019-02-18T02:27:13.270Z,18.63
2019-02-18T02:29:57.933Z,14.87
2019-02-18T02:32:45.388Z,14.10
2019-02-18T02:35:32.317Z,15.87
2019-02-18T02:38:17.035Z,16.07
2019-02-18T02:41:02.203Z,15.47
2019-02-18T02:43:47.126Z,15.50
2019-02-18T02:46:31.538Z,14.40
2019-02-18T02:49:16.243Z,19.53
2019-02-18T02:52:01.400Z,18.50
2019-02-18T02:54:46.108Z,17.30
2019-02-18T02:57:30.778Z,19.23
2019-02-18T03:00:15.739Z,13.13
2019-02-18T03:03:02.294Z,12.43
2019-02-18T03:05:47.170Z,14.13
2019-02-18T03:08:31.685Z,15.50
2019-02-18T03:11:16.201Z,13.67
2019-02-18T03:14:00.691Z,11.97
2019-02-18T03:16:45.171Z,13.60
2019-02-18T03:19:33.768Z,13.63
2019-02-18T03:22:18.383Z,15.30
2019-02-18T03:25:25.593Z,11.77
2019-02-18T03:28:22.539Z,11.70
2019-02-18T03:31:11.091Z,12.37
2019-02-18T03:34:05.470Z,13.30
2019-02-18T03:36:50.299Z,12.40
2019-02-18T03:39:34.956Z,12.53
2019-02-18T03:42:19.418Z,13.27
2019-02-18T03:45:04.294Z,13.60
2019-02-18T03:47:48.994Z,14.30
2019-02-18T03:50:33.504Z,11.27
2019-02-18T03:53:18.245Z,13.43
2019-02-18T03:56:03.276Z,10.77
2019-02-18T03:58:48.246Z,13.60
2019-02-18T04:01:32.950Z,11.80
2019-02-18T04:04:17.944Z,11.47
2019-02-18T04:07:02.438Z,11.87
2019-02-18T04:09:47.325Z,11.10
2019-02-18T04:12:32.120Z,12.53
2019-02-18T04:15:17.350Z,11.17
2019-02-18T04:18:02.478Z,12.27
2019-02-18T04:20:47.080Z,12.00
2019-02-18T04:23:32.213Z,10.90
2019-02-18T04:26:16.774Z,12.80
2019-02-18T04:29:01.351Z,12.03
2019-02-18T04:31:45.930Z,10.90
2019-02-18T04:34:30.640Z,13.47
2019-02-18T04:37:15.417Z,12.03
2019-02-18T04:40:00.428Z,12.33
2019-02-18T04:42:45.137Z,16.53
2019-02-18T04:45:29.758Z,13.20
2019-02-18T04:48:14.369Z,12.83
2019-02-18T04:50:58.819Z,11.70
2019-02-18T04:53:43.529Z,11.37
2019-02-18T04:56:27.906Z,11.40
2019-02-18T04:59:14.311Z,13.57
2019-02-18T05:01:59.230Z,12.90
2019-02-18T05:04:43.793Z,12.80
2019-02-18T05:07:28.807Z,11.47
2019-02-18T05:10:13.794Z,11.67
2019-02-18T05:12:58.283Z,14.53
2019-02-18T05:15:42.830Z,15.20
2019-02-18T05:18:27.499Z,11.27
2019-02-18T05:21:12.403Z,12.93
2019-02-18T05:23:57.084Z,11.13
2019-02-18T05:26:41.838Z,13.00
2019-02-18T05:29:26.702Z,11.10
2019-02-18T05:32:11.563Z,13.70
2019-02-18T05:34:56.429Z,14.33
2019-02-18T05:37:41.017Z,14.60
2019-02-18T05:40:25.744Z,16.07
2019-02-18T05:43:10.133Z,15.47
2019-02-18T05:45:54.649Z,13.43
2019-02-18T05:48:39.214Z,15.57
2019-02-18T05:51:23.669Z,16.10
2019-02-18T05:54:08.436Z,16.97
2019-02-18T05:56:53.509Z,17.00
2019-02-18T05:59:40.764Z,17.57
2019-02-18T06:02:25.525Z,16.57
2019-02-18T06:05:10.148Z,13.73
2019-02-18T06:07:54.558Z,15.50
2019-02-18T06:10:39.164Z,11.97
2019-02-18T06:13:24.412Z,19.03
2019-02-18T06:16:09.353Z,13.93
2019-02-18T06:18:57.222Z,15.10
2019-02-18T06:21:42.700Z,14.00
2019-02-18T06:24:27.717Z,16.67
2019-02-18T06:27:12.873Z,14.07
2019-02-18T06:29:57.771Z,11.90
2019-02-18T06:32:43.136Z,14.70
2019-02-18T06:35:27.905Z,16.93
2019-02-18T06:38:12.478Z,16.87
2019-02-18T06:40:57.034Z,17.93
2019-02-18T06:43:41.537Z,16.77
2019-02-18T06:46:30.705Z,28.40
2019-02-18T06:49:15.766Z,12.67
2019-02-18T06:52:19.969Z,14.83
2019-02-18T06:55:19.044Z,18.13
2019-02-18T06:58:38.195Z,18.60
2019-02-18T07:01:45.165Z,14.47
2019-02-18T07:04:49.625Z,15.60
2019-02-18T07:07:54.328Z,16.30
2019-02-18T07:10:57.118Z,15.50
2019-02-18T07:13:56.909Z,17.80
2019-02-18T07:16:56.191Z,17.77
2019-02-18T07:19:55.686Z,17.13
2019-02-18T07:22:54.901Z,16.17
2019-02-18T07:25:56.554Z,16.40
2019-02-18T07:28:56.289Z,15.23
2019-02-18T07:31:55.305Z,15.90
2019-02-18T07:34:54.779Z,13.40
2019-02-18T07:37:57.724Z,12.70
2019-02-18T07:40:57.127Z,10.83
2019-02-18T07:43:57.209Z,13.77
2019-02-18T07:46:56.513Z,11.60
2019-02-18T07:49:56.455Z,13.67
2019-02-18T07:52:55.667Z,11.43
2019-02-18T07:55:55.000Z,9.40
2019-02-18T07:58:54.213Z,11.03
2019-02-18T08:01:53.350Z,11.03
2019-02-18T08:04:52.533Z,9.37
2019-02-18T08:07:51.838Z,8.83
2019-02-18T08:10:51.230Z,12.00
2019-02-18T08:13:50.918Z,8.83
2019-02-18T08:16:53.877Z,10.80
2019-02-18T08:19:55.471Z,9.90
2019-02-18T08:22:55.490Z,11.43
2019-02-18T08:25:58.681Z,9.97
2019-02-18T08:28:57.957Z,9.03
2019-02-18T08:31:57.223Z,8.23
2019-02-18T08:34:56.578Z,11.33
2019-02-18T08:37:55.650Z,7.50
2019-02-18T08:40:54.952Z,8.87
2019-02-18T08:43:54.147Z,8.20
2019-02-18T08:46:53.712Z,8.17
2019-02-18T08:49:53.765Z,9.10
2019-02-18T08:52:54.213Z,8.47
2019-02-18T08:55:54.119Z,10.73
2019-02-18T08:58:54.472Z,11.87
2019-02-18T09:01:54.827Z,9.83
2019-02-18T09:04:56.702Z,6.90
2019-02-18T09:07:55.731Z,8.40
2019-02-18T09:10:55.393Z,7.33
2019-02-18T09:13:55.267Z,8.03
2019-02-18T09:16:55.339Z,8.20
2019-02-18T09:19:56.363Z,8.67
2019-02-18T09:26:22.809Z,7.23
2019-02-18T09:29:22.463Z,6.70
2019-02-18T09:32:22.038Z,8.37
2019-02-18T09:35:21.227Z,7.77
2019-02-18T09:38:24.780Z,8.00
2019-02-18T09:41:25.215Z,9.60
2019-02-18T09:44:24.545Z,8.17
2019-02-18T09:47:25.133Z,6.90
2019-02-18T09:50:24.842Z,9.63
2019-02-18T09:53:23.999Z,8.10
2019-02-18T09:56:23.533Z,8.77
2019-02-18T09:59:22.698Z,10.00
2019-02-18T10:02:22.682Z,7.73
2019-02-18T10:05:22.489Z,7.43
2019-02-18T10:08:21.642Z,6.97
2019-02-18T10:11:21.479Z,9.27
2019-02-18T10:14:21.072Z,6.67
2019-02-18T10:17:21.055Z,5.97
2019-02-18T10:20:20.415Z,8.23
2019-02-18T10:23:19.727Z,7.23
2019-02-18T10:26:19.638Z,7.53
2019-02-18T10:29:18.772Z,6.53
2019-02-18T10:32:17.815Z,7.47
2019-02-18T10:35:16.921Z,6.67
2019-02-18T10:38:16.003Z,8.17
2019-02-18T10:41:19.328Z,9.33
2019-02-18T10:44:19.634Z,7.90
2019-02-18T10:47:19.463Z,8.38
2019-02-18T10:50:18.821Z,10.32
2019-02-18T10:53:18.775Z,8.50
2019-02-18T10:56:18.177Z,7.50
2019-02-18T10:59:18.237Z,6.62
2019-02-18T11:02:17.352Z,7.37
2019-02-18T11:05:17.257Z,6.55
2019-02-18T11:08:16.854Z,9.10
2019-02-18T11:11:17.370Z,7.05
2019-02-18T11:14:18.820Z,8.68
2019-02-18T11:17:18.315Z,10.68
2019-02-18T11:20:17.533Z,14.55
2019-02-18T11:23:16.699Z,18.05
2019-02-18T11:26:16.789Z,17.75
2019-02-18T11:29:15.997Z,17.32
2019-02-18T11:32:15.299Z,16.97
2019-02-18T11:35:14.758Z,12.13
2019-02-18T11:38:14.104Z,12.95
2019-02-18T11:41:14.237Z,8.73
2019-02-18T11:44:13.427Z,10.98
2019-02-18T11:47:12.840Z,9.13
2019-02-18T11:50:12.961Z,10.28
2019-02-18T11:53:12.974Z,10.75
2019-02-18T11:56:12.208Z,9.63
2019-02-18T11:59:11.457Z,10.13
2019-02-18T12:02:10.744Z,8.28
2019-02-18T12:05:10.979Z,9.75
2019-02-18T12:08:10.112Z,9.15
2019-02-18T12:11:09.797Z,8.55
2019-02-18T12:14:09.068Z,10.40
2019-02-18T12:17:19.979Z,10.63
2019-02-18T12:20:10.563Z,9.58
2019-02-18T12:23:10.132Z,8.80
2019-02-18T12:26:10.546Z,9.63
2019-02-18T12:29:15.157Z,7.97
2019-02-18T12:32:14.737Z,7.80
2019-02-18T12:35:14.022Z,7.78
2019-02-18T12:38:13.283Z,8.75
2019-02-18T12:41:13.402Z,8.58
2019-02-18T12:44:13.478Z,8.63
2019-02-18T12:47:12.718Z,9.28
2019-02-18T12:50:12.413Z,8.88
2019-02-18T12:53:12.587Z,9.73
2019-02-18T12:56:13.001Z,10.63
2019-02-18T12:59:13.248Z,10.85
2019-02-18T13:02:13.519Z,10.20
2019-02-18T13:05:14.105Z,10.55
2019-02-18T13:08:13.889Z,12.43
2019-02-18T13:11:13.889Z,11.50
2019-02-18T13:14:14.319Z,13.55
2019-02-18T13:17:14.470Z,10.50
2019-02-18T13:20:14.814Z,9.60
2019-02-18T13:23:15.098Z,10.72
2019-02-18T13:26:15.304Z,14.00
2019-02-18T13:29:15.358Z,10.93
2019-02-18T13:32:15.627Z,10.08
2019-02-18T13:35:15.741Z,9.48
2019-02-18T13:38:14.987Z,9.68
2019-02-18T13:41:14.305Z,11.05
2019-02-18T13:44:13.739Z,10.68
2019-02-18T13:47:13.649Z,10.23
2019-02-18T13:50:13.122Z,8.75
2019-02-18T13:53:12.262Z,10.48
2019-02-18T13:56:11.527Z,11.00
2019-02-18T13:59:11.024Z,10.30
2019-02-18T14:02:11.025Z,11.15
2019-02-18T14:05:10.242Z,11.60
2019-02-18T14:08:09.306Z,11.38
2019-02-18T14:11:08.817Z,10.90
2019-02-18T14:14:08.017Z,11.08
2019-02-18T14:17:07.512Z,11.12
2019-02-18T14:20:07.218Z,9.88
2019-02-18T14:23:06.602Z,11.88
2019-02-18T14:26:06.111Z,9.13
2019-02-18T14:29:08.511Z,11.20
2019-02-18T14:32:08.387Z,9.15
2019-02-18T14:35:07.603Z,9.65
2019-02-18T14:38:06.811Z,9.80
2019-02-18T14:41:06.247Z,8.63
2019-02-18T14:44:06.633Z,12.00
2019-02-18T14:47:06.709Z,11.25
2019-02-18T14:50:06.268Z,10.05
2019-02-18T14:53:06.015Z,9.85
2019-02-18T14:56:06.744Z,8.55
2019-02-18T14:59:06.218Z,10.05
2019-02-18T15:02:06.301Z,13.25
2019-02-18T15:05:08.317Z,10.23
2019-02-18T15:08:08.651Z,9.88
2019-02-18T15:11:07.909Z,9.53
2019-02-18T15:14:07.764Z,11.22
2019-02-18T15:17:10.421Z,9.65
2019-02-18T15:20:11.619Z,9.63
2019-02-18T15:23:11.720Z,9.98
2019-02-18T15:26:11.567Z,10.93
2019-02-18T15:29:10.902Z,12.35
2019-02-18T15:32:10.959Z,13.08
2019-02-18T15:35:10.261Z,12.98
2019-02-18T15:38:10.242Z,12.33
2019-02-18T15:41:09.394Z,12.75
2019-02-18T15:44:08.843Z,12.53
2019-02-18T15:47:07.996Z,11.73
2019-02-18T15:50:07.429Z,11.97
2019-02-18T15:53:09.089Z,14.18
2019-02-18T15:56:08.779Z,12.85
2019-02-18T15:59:08.105Z,11.95
2019-02-18T16:02:08.269Z,12.07
2019-02-18T16:05:07.512Z,14.58
2019-02-18T16:08:07.691Z,14.47
2019-02-18T16:11:07.796Z,13.95
2019-02-18T16:14:06.947Z,14.60
2019-02-18T16:17:06.463Z,13.80
2019-02-18T16:20:05.733Z,14.47
2019-02-18T16:23:05.814Z,14.75
2019-02-18T16:26:05.018Z,13.00
2019-02-18T16:29:04.400Z,15.15
2019-02-18T16:32:04.417Z,15.78
2019-02-18T16:35:03.618Z,16.00
2019-02-18T16:38:03.968Z,15.53
2019-02-18T16:41:04.269Z,13.70
2019-02-18T16:44:04.620Z,18.40
2019-02-18T16:47:05.935Z,16.23
2019-02-18T16:50:06.011Z,16.37
2019-02-18T16:53:07.032Z,14.27
2019-02-18T16:56:08.793Z,14.07
2019-02-18T16:59:08.523Z,13.60
2019-02-18T17:02:08.618Z,15.07
2019-02-18T17:05:10.786Z,12.47
2019-02-18T17:08:10.729Z,16.13
2019-02-18T17:11:10.002Z,14.87
2019-02-18T17:14:09.942Z,14.30
2019-02-18T17:17:09.213Z,15.07
2019-02-18T17:20:08.391Z,15.03
2019-02-18T17:23:07.517Z,12.90
2019-02-18T17:26:06.847Z,18.00
2019-02-18T17:29:06.811Z,14.97
2019-02-18T17:32:06.226Z,15.87
2019-02-18T17:35:05.652Z,16.10
2019-02-18T17:38:04.954Z,14.00
2019-02-18T17:41:04.108Z,15.13
2019-02-18T17:44:03.377Z,16.73
2019-02-18T17:47:02.892Z,17.20
2019-02-18T17:50:02.863Z,16.43
2019-02-18T17:53:02.737Z,18.27
2019-02-18T17:56:01.929Z,16.43
2019-02-18T17:59:01.648Z,18.27
2019-02-18T18:02:01.676Z,17.77
2019-02-18T18:05:01.910Z,17.60
2019-02-18T18:08:04.741Z,17.90
2019-02-18T18:11:04.208Z,19.17
2019-02-18T18:14:03.356Z,15.07
2019-02-18T18:17:03.723Z,14.73
2019-02-18T18:20:03.632Z,18.63
2019-02-18T18:23:02.963Z,17.33
2019-02-18T18:26:02.226Z,19.10
2019-02-18T18:29:02.271Z,20.53
2019-02-18T18:32:01.601Z,20.13
2019-02-18T18:35:00.876Z,18.53
2019-02-18T18:37:59.962Z,17.37
2019-02-18T18:40:59.131Z,15.87
2019-02-18T18:43:58.660Z,17.27
2019-02-18T18:46:58.653Z,17.57
2019-02-18T18:49:58.193Z,18.73
2019-02-18T18:52:58.323Z,19.07
2019-02-18T18:55:57.636Z,19.40
2019-02-18T18:58:57.829Z,17.87
2019-02-18T19:01:57.078Z,16.73
2019-02-18T19:04:57.229Z,20.00
2019-02-18T19:07:57.019Z,18.13
2019-02-18T19:10:56.907Z,21.70
2019-02-18T19:13:56.106Z,20.10
2019-02-18T19:16:56.396Z,19.27
2019-02-18T19:19:43.498Z,20.23
2019-02-18T19:22:49.842Z,17.33
2019-02-18T19:25:49.280Z,20.23
2019-02-18T19:28:48.647Z,19.60
2019-02-18T19:31:48.255Z,19.30
2019-02-18T19:34:47.312Z,17.60
2019-02-18T19:37:46.752Z,20.27
2019-02-18T19:40:45.864Z,15.63
2019-02-18T19:43:50.182Z,18.00
2019-02-18T19:46:46.327Z,18.90
2019-02-18T19:49:46.455Z,17.63
2019-02-18T19:52:46.513Z,16.33
2019-02-18T19:55:46.009Z,16.13
2019-02-18T19:58:46.011Z,17.30
2019-02-18T20:01:46.137Z,17.33
2019-02-18T20:04:46.385Z,18.30
2019-02-18T20:07:46.497Z,17.00
2019-02-18T20:10:46.591Z,17.20
2019-02-18T20:13:46.115Z,19.80
2019-02-18T20:16:46.425Z,17.63
2019-02-18T20:19:46.436Z,18.30
2019-02-18T20:22:46.907Z,15.90
2019-02-18T20:25:47.104Z,17.37
2019-02-18T20:28:47.106Z,16.37
2019-02-18T20:31:47.925Z,17.17
2019-02-18T20:34:47.967Z,15.63
2019-02-18T20:37:48.344Z,16.33
2019-02-18T20:40:48.600Z,19.07
2019-02-18T20:43:48.932Z,16.23
2019-02-18T20:46:49.365Z,21.13
2019-02-18T20:49:49.457Z,19.60
2019-02-18T20:52:49.622Z,19.63
2019-02-18T20:55:49.809Z,25.97
2019-02-18T20:58:50.168Z,21.33
2019-02-18T21:01:50.293Z,20.47
2019-02-18T21:04:50.563Z,24.30
2019-02-18T21:07:50.443Z,22.00
2019-02-18T21:10:50.281Z,23.83
2019-02-18T21:13:49.649Z,25.53
2019-02-18T21:16:48.988Z,25.23
2019-02-18T21:19:49.199Z,23.13
2019-02-18T21:22:48.540Z,20.50
2019-02-18T21:25:47.871Z,19.57
2019-02-18T21:28:47.226Z,26.37
2019-02-18T21:31:46.660Z,25.07
2019-02-18T21:34:46.799Z,22.60
2019-02-18T21:37:46.079Z,22.83
2019-02-18T21:40:45.604Z,23.77
2019-02-18T21:43:45.818Z,20.40
2019-02-18T21:46:45.803Z,21.97
2019-02-18T21:49:46.106Z,23.10
2019-02-18T21:52:46.244Z,23.47
2019-02-18T21:55:45.499Z,21.33
2019-02-18T21:58:44.856Z,21.07
2019-02-18T22:01:44.437Z,20.90
2019-02-18T22:04:43.807Z,19.03
2019-02-18T22:07:43.105Z,20.03
2019-02-18T22:10:43.176Z,20.87
2019-02-18T22:13:42.361Z,19.63
2019-02-18T22:16:42.484Z,25.03
2019-02-18T22:19:41.588Z,18.33
2019-02-18T22:22:40.950Z,19.70
2019-02-18T22:25:40.130Z,18.37
2019-02-18T22:28:39.652Z,18.30
2019-02-18T22:31:38.953Z,19.63
2019-02-18T22:34:39.246Z,15.83
2019-02-18T22:37:38.632Z,17.70
2019-02-18T22:40:41.593Z,19.07
2019-02-18T22:43:41.010Z,18.07
2019-02-18T22:46:40.178Z,16.00
2019-02-18T22:49:40.501Z,16.33
2019-02-18T22:52:40.604Z,18.07
2019-02-18T22:55:40.492Z,17.40
2019-02-18T22:58:39.681Z,16.73
2019-02-18T23:01:39.172Z,15.37
2019-02-18T23:04:39.287Z,17.90
2019-02-18T23:07:38.485Z,15.10
2019-02-18T23:10:38.034Z,17.03
2019-02-18T23:13:37.165Z,16.40
2019-02-18T23:16:36.728Z,15.87
2019-02-18T23:19:36.745Z,13.50
2019-02-18T23:22:35.930Z,15.93
2019-02-18T23:25:35.139Z,13.57
2019-02-18T23:28:34.110Z,14.50
2019-02-18T23:31:33.557Z,14.97
2019-02-18T23:34:33.762Z,17.03
2019-02-18T23:37:33.900Z,14.77
2019-02-18T23:40:33.054Z,15.60
2019-02-18T23:43:32.151Z,15.10
2019-02-18T23:46:31.462Z,15.10
2019-02-18T23:49:30.664Z,13.47
2019-02-18T23:52:29.943Z,13.07
2019-02-18T23:55:29.851Z,15.47
2019-02-18T23:58:28.967Z,14.83
